Aérodrome :
LOGIN :

S'inscrire | Disclaimer

   EN    FR    IT 

 










Légende :    VFR   VFR Marginal   IFR   IFR Intensif   IFR Très Intensif
Visi : 
Plafond : 
>= 8 km
>= 3000ft
5 à 8 km
1000 à 3000 ft
1500m à 5 km
500 à 1000 ft
800 à 1500m
200 à 500 ft
< 800m
< 200 ft
Symboles :   Orages  Brouillard  Fortes neiges  Fortes précipitations  Vent > 20 kt
SIGMETs :   Divers  Orages  Givrage  Turbulence  Onde Orograph.  Cendres Volcan.







- Altitude de l'aérodrome : 580 ft
- Voir les cartes d'approche


LFOA - Avord

DERNIER METAR :
  • 281730Z AUTO 29005KT CAVOK 17/08 Q1025 TEMPO 4000 SHRA BKN060TCU

METARs EXPIRÉS :
  • 281700Z AUTO 29008KT CAVOK 17/07 Q1025 TEMPO 4000 SHRA BKN060TCU
  • 281630Z AUTO 30008KT CAVOK 18/07 Q1025 TEMPO 4000 SHRA BKN060TCU
  • 281600Z AUTO 30009KT CAVOK 18/07 Q1025 TEMPO 4000 SHRA BKN060TCU
  • 281530Z AUTO 30009KT CAVOK 18/08 Q1025 TEMPO 4000 SHRA BKN060TCU
  • 281500Z AUTO 28009KT 230V320 9999 FEW043 SCT100 17/08 Q1025 TEMPO 4000 SHRA BKN060TCU

TAF TAF LFOA
Valide du 28 à 15h jusqu'au 29 à 15h UTC


281400Z 2815/2915 26010KT 9999 SCT045
PROB40
TEMPO 2815/2819 4000 SHRA BKN060TCU
BECMG 2822/2824 VRB02KT 3000 BR
TEMPO 2902/2906 0400 FG VV///
BECMG 2907/2909 6000 NSW BKN005
BECMG 2909/2911 SCT020
Pas de NOTAMs connus pour ce terrain.



MET'MAP, la Météo Aéronautique d'un coup d'oeil ! - Copyright ORBIFLY Décembre 2007 - Disclaimer

ORBIFLY MET'MAP TEAM :

Programmation & Développement : Alexandra Zaïnal
Conception & Développement : Baudouin d'Aumeries
Co-Programmation & Développement : Marc-Olivier Méhu
Soutien technique & logistique : Manuel Goepfert

Contact : metmap@orbifly.com




SOURCES & CREDITS :

   NOAA